createdAt,value
2019-04-25T00:04:07.736Z,8
2019-04-25T00:14:34.540Z,8
2019-04-25T00:19:53.549Z,8
2019-04-25T00:25:18.569Z,8
2019-04-25T00:35:48.320Z,7
2019-04-25T00:41:07.257Z,7
2019-04-25T00:46:29.456Z,7
2019-04-25T00:51:48.734Z,7
2019-04-25T00:57:08.176Z,7
2019-04-25T01:02:24.486Z,7
2019-04-25T01:07:46.043Z,7
2019-04-25T01:13:04.813Z,7
2019-04-25T01:28:54.917Z,7
2019-04-25T01:34:15.379Z,7
2019-04-25T01:39:31.461Z,7
2019-04-25T01:44:59.354Z,7
2019-04-25T01:50:16.747Z,7
2019-04-25T01:55:34.552Z,7
2019-04-25T02:00:48.047Z,7
2019-04-25T02:06:07.921Z,7
2019-04-25T02:11:24.948Z,7
2019-04-25T02:16:44.649Z,7
2019-04-25T02:27:18.268Z,7
2019-04-25T02:32:44.798Z,7
2019-04-25T02:38:09.605Z,7
2019-04-25T02:43:24.935Z,7
2019-04-25T02:48:41.266Z,7
2019-04-25T02:54:08.709Z,7
2019-04-25T02:59:28.076Z,7
2019-04-25T03:04:45.497Z,7
2019-04-25T03:10:10.134Z,7
2019-04-25T03:15:31.280Z,7
2019-04-25T03:20:54.635Z,7
2019-04-25T03:26:10.053Z,7
2019-04-25T03:31:28.146Z,7
2019-04-25T03:36:45.371Z,7
2019-04-25T03:42:04.237Z,7
2019-04-25T03:47:19.740Z,7
2019-04-25T03:52:37.270Z,7
2019-04-25T03:57:54.874Z,7
2019-04-25T04:03:11.278Z,7
2019-04-25T04:08:29.014Z,7
2019-04-25T04:13:45.000Z,8
2019-04-25T04:19:01.708Z,8
2019-04-25T04:24:18.872Z,8
2019-04-25T04:29:36.651Z,8
2019-04-25T04:34:58.068Z,8
2019-04-25T04:40:18.901Z,8
2019-04-25T04:45:31.984Z,8
2019-04-25T04:50:54.429Z,8
2019-04-25T04:56:18.060Z,9
2019-04-25T05:01:34.455Z,9
2019-04-25T05:12:00.430Z,9
2019-04-25T05:17:18.551Z,9
2019-04-25T05:22:37.801Z,9
2019-04-25T05:28:05.577Z,10
2019-04-25T05:33:26.394Z,10
2019-04-25T05:38:41.868Z,11
2019-04-25T05:44:05.412Z,11
2019-04-25T05:49:24.227Z,12
2019-04-25T05:54:40.443Z,12
2019-04-25T06:00:04.582Z,13
2019-04-25T06:05:26.449Z,13
2019-04-25T06:10:45.310Z,14
2019-04-25T06:16:06.304Z,14
2019-04-25T06:26:40.870Z,14
2019-04-25T07:08:57.745Z,14
2019-04-25T07:14:16.250Z,14
2019-04-25T07:24:59.792Z,14
2019-04-25T07:30:49.717Z,14
2019-04-25T07:36:09.294Z,14
2019-04-25T07:41:28.042Z,15
2019-04-25T07:52:07.160Z,15
2019-04-25T07:57:24.251Z,15
2019-04-25T08:02:43.957Z,16
2019-04-25T08:13:21.559Z,16
2019-04-25T08:18:40.661Z,16
2019-04-25T08:40:00.998Z,16
2019-04-25T08:45:21.526Z,17
2019-04-25T08:50:44.750Z,17
2019-04-25T09:06:44.778Z,18
2019-04-25T09:17:17.879Z,18
2019-04-25T09:22:40.639Z,18
2019-04-25T10:04:54.747Z,20
2019-04-25T10:31:16.602Z,21
2019-04-25T17:16:07.199Z,22
2019-04-25T17:21:20.921Z,21
2019-04-25T17:26:35.729Z,21
2019-04-25T17:31:50.645Z,20
2019-04-25T17:37:07.540Z,20
2019-04-25T17:47:55.568Z,19
2019-04-25T17:53:17.601Z,19
2019-04-25T17:58:37.268Z,19
2019-04-25T18:04:01.353Z,19
2019-04-25T18:09:15.682Z,19
2019-04-25T18:14:38.851Z,18
2019-04-25T18:19:56.570Z,18
2019-04-25T18:25:15.609Z,18
2019-04-25T18:30:37.550Z,18
2019-04-25T18:35:54.158Z,18
2019-04-25T18:41:15.409Z,18
2019-04-25T18:46:31.042Z,17
2019-04-25T18:51:58.869Z,17
2019-04-25T18:57:15.291Z,17
2019-04-25T19:02:32.427Z,17
2019-04-25T19:07:51.780Z,17
2019-04-25T19:13:13.969Z,16
2019-04-25T19:18:32.655Z,16
2019-04-25T19:23:52.711Z,16
2019-04-25T19:29:15.510Z,16
2019-04-25T19:34:38.398Z,16
2019-04-25T19:40:00.862Z,16
2019-04-25T19:45:19.530Z,15
2019-04-25T19:50:43.434Z,15
2019-04-25T19:55:57.727Z,15
2019-04-25T20:01:21.865Z,15
2019-04-25T20:06:35.793Z,15
2019-04-25T20:11:58.087Z,15
2019-04-25T20:17:20.457Z,15
2019-04-25T20:22:34.742Z,15
2019-04-25T20:27:55.293Z,15
2019-04-25T20:33:18.359Z,15
2019-04-25T20:38:45.891Z,15
2019-04-25T20:44:06.618Z,14
2019-04-25T20:49:24.287Z,14
2019-04-25T20:54:49.309Z,14
2019-04-25T21:00:03.893Z,14
2019-04-25T21:21:00.081Z,13
2019-04-25T21:31:33.039Z,13
2019-04-25T21:36:53.820Z,13
2019-04-25T21:42:12.628Z,12
2019-04-25T21:47:28.560Z,12
2019-04-25T21:52:51.242Z,12
2019-04-25T21:58:08.564Z,12
2019-04-25T22:03:26.014Z,12
2019-04-25T22:08:50.718Z,12
2019-04-25T22:14:15.629Z,12
2019-04-25T22:19:39.437Z,11
2019-04-25T22:25:02.975Z,11
2019-04-25T22:30:23.737Z,11
2019-04-25T22:35:47.856Z,11
2019-04-25T22:46:29.865Z,11
2019-04-25T22:51:48.586Z,11
2019-04-25T22:57:10.038Z,11
2019-04-25T23:02:33.825Z,11
2019-04-25T23:07:53.029Z,11
2019-04-25T23:13:13.329Z,11
2019-04-25T23:18:29.391Z,10
2019-04-25T23:23:50.554Z,10
2019-04-25T23:29:08.097Z,10
2019-04-25T23:34:24.427Z,10
2019-04-25T23:39:38.414Z,10
2019-04-25T23:44:56.460Z,10
2019-04-25T23:50:14.884Z,10
2019-04-25T23:55:34.557Z,10
